Time;durP1;ratioP1;P1;durP2;ratioP2;P2;SDS_P1;SDS_P2;PMS_P1;PMS_P2;Temp;Humidity;BMP_temperature;BMP_pressure;BME280_temperature;BME280_humidity;BME280_pressure;Samples;Min_cycle;Max_cycle;Signal;HPM_P1;HPM_P2
2021/08/24 00:00:40;;;;;;;10.30;5.00;;;;;;;18.08;51.69;100755.84;117353;1186;21854;-64
2021/08/24 00:03:08;;;;;;;9.30;5.50;;;;;;;18.02;51.80;100760.33;117421;1182;21855;-69
2021/08/24 00:05:37;;;;;;;8.90;4.90;;;;;;;18.00;51.94;100756.48;117369;1182;23535;-64
2021/08/24 00:08:05;;;;;;;8.50;5.40;;;;;;;17.97;52.04;100750.00;117370;1183;21860;-64
2021/08/24 00:10:37;;;;;;;7.60;4.80;;;;;;;17.93;52.13;100753.67;117504;1186;23455;-64
2021/08/24 00:13:05;;;;;;;8.40;4.50;;;;;;;17.97;52.00;100754.95;117455;1186;22908;-68
2021/08/24 00:15:33;;;;;;;7.90;5.00;;;;;;;17.97;52.11;100759.22;117370;1185;21854;-70
2021/08/24 00:18:02;;;;;;;9.00;5.40;;;;;;;17.91;52.51;100755.01;117262;1185;21918;-69
2021/08/24 00:20:31;;;;;;;5.90;4.70;;;;;;;17.92;52.38;100754.80;117417;1186;21855;-65
2021/08/24 00:23:01;;;;;;;9.20;4.60;;;;;;;17.88;52.28;100755.86;117434;1185;21858;-64
2021/08/24 00:25:29;;;;;;;8.70;4.90;;;;;;;17.90;52.22;100753.98;117409;1185;22621;-69
2021/08/24 00:27:57;;;;;;;8.80;5.10;;;;;;;17.84;52.37;100750.47;117478;1183;23440;-68
2021/08/24 00:30:26;;;;;;;7.90;4.80;;;;;;;17.79;52.50;100751.16;117448;1186;22905;-64
2021/08/24 00:32:54;;;;;;;8.70;5.20;;;;;;;17.77;52.65;100749.29;117395;1185;21858;-68
2021/08/24 00:35:23;;;;;;;8.90;5.50;;;;;;;17.76;52.73;100746.70;117420;1186;21864;-68
2021/08/24 00:37:52;;;;;;;12.10;5.60;;;;;;;17.78;52.50;100749.25;117388;1186;22024;-65
2021/08/24 00:40:20;;;;;;;10.40;5.10;;;;;;;17.81;52.55;100744.02;117455;1185;22946;-64
2021/08/24 00:42:49;;;;;;;8.50;4.30;;;;;;;17.81;52.44;100745.95;117468;1186;21854;-64
2021/08/24 00:45:17;;;;;;;8.10;5.10;;;;;;;17.81;52.52;100739.94;117401;1182;22020;-68
2021/08/24 00:47:46;;;;;;;11.50;4.70;;;;;;;17.79;52.41;100741.61;117405;1183;21861;-65
2021/08/24 00:50:23;;;;;;;6.90;4.50;;;;;;;17.76;52.46;100738.67;117461;1185;21871;-69
2021/08/24 00:52:52;;;;;;;9.70;5.00;;;;;;;17.75;52.41;100740.86;117460;1182;21953;-65
2021/08/24 00:55:20;;;;;;;8.90;4.90;;;;;;;17.76;52.26;100737.79;117450;1186;22963;-65
2021/08/24 00:57:54;;;;;;;7.90;4.60;;;;;;;17.75;52.24;100734.27;117406;1185;21854;-65
2021/08/24 01:00:22;;;;;;;7.60;4.90;;;;;;;17.70;52.32;100740.33;117369;1185;21854;-65
2021/08/24 01:02:51;;;;;;;8.60;4.90;;;;;;;17.63;52.54;100739.53;117392;1185;21855;-65
2021/08/24 01:05:20;;;;;;;9.00;4.50;;;;;;;17.63;52.51;100738.45;117426;1183;21852;-68
2021/08/24 01:08:52;;;;;;;8.30;4.60;;;;;;;17.56;52.72;100737.44;117323;1182;23522;-69
2021/08/24 01:11:32;;;;;;;7.00;4.70;;;;;;;17.56;52.71;100736.23;117373;1185;23560;-65
2021/08/24 01:14:09;;;;;;;8.40;4.60;;;;;;;17.48;52.87;100738.79;117393;1183;21859;-69
2021/08/24 01:16:38;;;;;;;6.60;3.90;;;;;;;17.57;52.79;100739.91;117396;1183;21858;-65
2021/08/24 01:19:24;;;;;;;6.30;4.10;;;;;;;17.61;52.67;100742.42;117402;1186;22626;-69
2021/08/24 01:22:26;;;;;;;6.50;4.10;;;;;;;17.48;52.98;100742.70;117398;1186;21852;-66
2021/08/24 01:25:12;;;;;;;7.50;4.50;;;;;;;17.58;52.84;100741.65;117370;1183;24149;-69
2021/08/24 01:27:47;;;;;;;8.30;4.60;;;;;;;17.56;52.96;100742.60;117467;1183;21866;-67
2021/08/24 01:30:48;;;;;;;8.20;4.70;;;;;;;17.51;53.17;100740.81;117440;1183;24266;-68
2021/08/24 01:33:25;;;;;;;7.00;4.70;;;;;;;17.53;53.28;100738.98;117487;1185;21855;-68
2021/08/24 01:36:06;;;;;;;8.10;4.80;;;;;;;17.58;53.24;100740.05;117434;1183;24170;-64
2021/08/24 01:38:58;;;;;;;12.60;4.90;;;;;;;17.63;52.96;100736.69;117350;1185;23459;-65
2021/08/24 01:41:51;;;;;;;11.40;5.20;;;;;;;17.58;53.18;100735.80;117401;1181;21966;-68
2021/08/24 01:44:21;;;;;;;8.80;5.20;;;;;;;17.47;53.51;100735.11;117264;1185;22619;-64
2021/08/24 01:47:10;;;;;;;8.90;4.80;;;;;;;17.43;53.63;100734.56;117340;1185;23440;-67
2021/08/24 01:50:11;;;;;;;10.00;5.30;;;;;;;17.40;53.73;100733.40;117448;1185;23433;-68
2021/08/24 01:52:56;;;;;;;7.60;4.80;;;;;;;17.38;53.86;100733.48;117484;1186;21951;-64
2021/08/24 01:55:26;;;;;;;11.50;5.00;;;;;;;17.37;53.90;100729.97;117357;1186;23432;-63
2021/08/24 01:58:24;;;;;;;7.30;4.30;;;;;;;17.32;53.93;100729.05;117330;1185;21858;-64
2021/08/24 02:00:54;;;;;;;9.00;5.00;;;;;;;17.32;53.99;100731.02;117388;1185;21851;-67
2021/08/24 02:03:32;;;;;;;;;;;;;;;17.32;53.97;100727.84;117513;1185;21873;-65
2021/08/24 02:06:27;;;;;;;7.30;4.50;;;;;;;17.32;53.93;100729.96;117400;1186;21891;-64
2021/08/24 02:08:58;;;;;;;8.90;4.70;;;;;;;17.32;53.99;100727.10;117377;1185;23560;-68
2021/08/24 02:11:27;;;;;;;7.60;4.60;;;;;;;17.39;54.01;100725.98;117362;1183;21874;-68
2021/08/24 02:13:56;;;;;;;6.30;4.30;;;;;;;17.33;54.14;100727.44;117450;1183;23462;-68
2021/08/24 02:16:28;;;;;;;8.60;4.60;;;;;;;17.37;54.08;100724.46;117229;1182;21855;-68
2021/08/24 02:19:00;;;;;;;9.60;5.00;;;;;;;17.45;53.83;100725.25;117391;1185;21874;-64
2021/08/24 02:21:31;;;;;;;7.90;4.20;;;;;;;17.43;53.86;100723.20;117343;1184;22909;-68
2021/08/24 02:24:03;;;;;;;9.80;5.40;;;;;;;17.43;53.88;100723.20;117433;1185;23432;-69
2021/08/24 02:26:31;;;;;;;8.50;4.80;;;;;;;17.43;53.93;100721.41;117419;1183;23467;-69
2021/08/24 02:29:00;;;;;;;10.70;4.60;;;;;;;17.40;54.02;100719.39;117449;1182;21875;-65
2021/08/24 02:31:33;;;;;;;7.20;5.00;;;;;;;17.40;54.08;100717.10;117326;1185;21864;-64
2021/08/24 02:34:22;;;;;;;7.30;4.80;;;;;;;17.28;54.39;100717.84;117384;1185;23550;-68
2021/08/24 02:36:59;;;;;;;6.10;4.80;;;;;;;17.26;54.55;100717.90;117405;1183;21857;-68
2021/08/24 02:39:52;;;;;;;10.20;4.90;;;;;;;17.25;54.62;100716.00;117156;1179;21861;-68
2021/08/24 02:42:50;;;;;;;10.60;5.30;;;;;;;17.26;54.67;100709.23;117373;1186;23583;-64
2021/08/24 02:45:31;;;;;;;8.50;4.80;;;;;;;17.25;54.76;100713.35;117170;1186;21864;-64
2021/08/24 02:48:00;;;;;;;9.60;5.00;;;;;;;17.23;54.84;100710.40;117283;1185;23433;-63
2021/08/24 02:50:29;;;;;;;7.60;5.20;;;;;;;17.21;54.84;100711.88;117388;1185;23340;-63
2021/08/24 02:52:58;;;;;;;8.60;5.20;;;;;;;17.20;55.01;100710.34;117328;1185;21891;-68
2021/08/24 02:55:26;;;;;;;9.50;5.90;;;;;;;17.19;55.17;100710.54;117345;1185;21878;-63
2021/08/24 02:57:54;;;;;;;12.50;5.50;;;;;;;17.19;55.12;100710.73;117392;1186;21908;-64
2021/08/24 03:00:24;;;;;;;12.20;5.40;;;;;;;17.19;55.23;100710.71;117422;1183;21993;-64
2021/08/24 03:02:52;;;;;;;9.70;5.70;;;;;;;17.18;55.32;100705.09;117481;1182;23570;-64
2021/08/24 03:05:21;;;;;;;7.60;5.10;;;;;;;17.18;55.43;100709.86;117420;1183;21895;-69
2021/08/24 03:07:50;;;;;;;8.10;5.10;;;;;;;17.18;55.61;100706.88;117391;1182;21855;-64
2021/08/24 03:10:22;;;;;;;12.00;5.20;;;;;;;17.15;55.66;100705.70;117181;1185;22625;-69
2021/08/24 03:13:09;;;;;;;18.50;7.00;;;;;;;17.15;55.72;100704.29;117327;1182;23541;-68
2021/08/24 03:15:51;;;;;;;13.40;6.60;;;;;;;17.14;55.84;100703.98;117131;1187;21882;-69
2021/08/24 03:18:26;;;;;;;9.30;5.30;;;;;;;17.15;55.89;100706.42;117456;1186;22122;-69
2021/08/24 03:20:57;;;;;;;10.70;5.70;;;;;;;17.18;55.99;100703.65;117331;1183;21864;-69
2021/08/24 03:23:26;;;;;;;11.00;5.50;;;;;;;17.26;55.76;100704.43;117516;1186;21857;-68
2021/08/24 03:25:54;;;;;;;12.70;5.80;;;;;;;17.28;55.83;100701.36;117458;1182;21854;-65
2021/08/24 03:28:23;;;;;;;8.70;5.50;;;;;;;17.29;55.96;100700.95;117402;1183;21845;-65
2021/08/24 03:30:51;;;;;;;9.20;5.20;;;;;;;17.32;55.89;100700.00;117433;1183;21855;-69
2021/08/24 03:33:20;;;;;;;11.60;6.20;;;;;;;17.33;56.02;100703.66;117440;1182;21873;-69
2021/08/24 03:35:48;;;;;;;7.70;5.20;;;;;;;17.36;56.18;100706.60;117368;1184;23464;-64
2021/08/24 03:38:16;;;;;;;9.10;5.70;;;;;;;17.38;56.22;100706.69;117321;1185;22640;-65
2021/08/24 03:40:44;;;;;;;11.50;5.80;;;;;;;17.42;56.29;100708.52;117339;1185;23455;-69
2021/08/24 03:43:12;;;;;;;14.20;5.70;;;;;;;17.47;56.22;100711.52;117186;1187;21863;-68
2021/08/24 03:45:41;;;;;;;11.40;6.40;;;;;;;17.53;56.32;100709.15;117417;1186;21854;-70
2021/08/24 03:48:09;;;;;;;11.40;6.30;;;;;;;17.57;56.37;100709.58;117379;1182;21861;-65
2021/08/24 03:50:38;;;;;;;8.30;5.30;;;;;;;17.62;56.53;100709.02;117376;1185;21860;-64
2021/08/24 03:53:06;;;;;;;8.10;5.40;;;;;;;17.69;56.56;100710.02;117481;1185;21860;-69
2021/08/24 03:55:35;;;;;;;9.00;5.80;;;;;;;17.76;56.54;100707.82;117096;1186;21855;-67
2021/08/24 03:58:03;;;;;;;9.00;5.50;;;;;;;17.82;56.75;100707.05;117392;1184;21852;-68
2021/08/24 04:00:31;;;;;;;9.50;5.70;;;;;;;17.90;56.79;100708.90;117433;1182;23429;-69
2021/08/24 04:03:00;;;;;;;16.70;5.80;;;;;;;17.97;56.80;100710.59;117456;1183;21946;-65
2021/08/24 04:05:28;;;;;;;20.90;6.80;;;;;;;18.05;56.95;100710.48;117381;1185;22908;-68
2021/08/24 04:07:56;;;;;;;18.80;6.70;;;;;;;18.13;57.02;100711.23;117468;1186;21845;-68
2021/08/24 04:10:25;;;;;;;12.90;6.60;;;;;;;18.21;56.94;100706.67;117331;1185;21856;-65
2021/08/24 04:13:06;;;;;;;11.10;6.20;;;;;;;18.31;56.90;100705.92;117355;1182;21851;-69
2021/08/24 04:15:35;;;;;;;10.70;6.10;;;;;;;18.42;56.98;100705.17;118399;1185;22318;-70
2021/08/24 04:18:03;;;;;;;22.80;6.10;;;;;;;18.50;57.10;100703.06;117461;1183;21900;-66
2021/08/24 04:20:32;;;;;;;12.90;5.70;;;;;;;18.60;57.23;100704.62;117436;1186;21864;-69
2021/08/24 04:23:00;;;;;;;8.30;5.60;;;;;;;18.70;57.18;100704.39;117727;1185;21898;-66
2021/08/24 04:25:29;;;;;;;9.10;6.00;;;;;;;18.76;57.51;100706.11;117288;1185;23059;-68
2021/08/24 04:27:57;;;;;;;7.50;5.00;;;;;;;18.88;57.52;100706.15;117418;1186;21864;-66
2021/08/24 04:30:25;;;;;;;12.20;5.60;;;;;;;19.10;57.52;100709.67;117385;1184;21938;-69
2021/08/24 04:32:53;;;;;;;8.50;5.30;;;;;;;19.27;57.39;100710.20;117523;1186;21990;-68
2021/08/24 04:35:21;;;;;;;10.70;5.60;;;;;;;19.42;57.29;100712.42;117385;1185;22081;-66
2021/08/24 04:37:49;;;;;;;13.10;5.00;;;;;;;19.59;57.12;100708.62;117457;1186;21864;-66
2021/08/24 04:40:17;;;;;;;11.10;5.00;;;;;;;19.76;56.85;100705.54;117398;1186;21854;-66
2021/08/24 04:42:46;;;;;;;9.80;5.00;;;;;;;19.95;56.71;100708.99;117427;1185;21855;-70
2021/08/24 04:45:15;;;;;;;9.60;5.30;;;;;;;20.14;56.42;100710.61;117151;1188;21876;-67
2021/08/24 04:47:43;;;;;;;9.50;4.70;;;;;;;20.31;55.92;100711.06;117405;1185;21854;-67
2021/08/24 04:50:11;;;;;;;8.20;5.20;;;;;;;20.50;55.28;100711.08;117404;1185;21865;-67
2021/08/24 04:52:40;;;;;;;9.20;4.90;;;;;;;20.69;55.05;100708.34;117456;1185;21908;-70
2021/08/24 04:55:28;;;;;;;7.90;4.50;;;;;;;20.89;54.61;100708.29;117295;1186;21860;-68
2021/08/24 04:57:56;;;;;;;8.10;5.30;;;;;;;21.08;54.28;100710.89;117474;1182;24145;-66
2021/08/24 05:00:25;;;;;;;10.30;4.90;;;;;;;21.29;53.55;100708.21;117354;1185;21844;-67
2021/08/24 05:02:53;;;;;;;9.90;4.80;;;;;;;21.47;53.17;100704.41;117374;1186;21862;-68
2021/08/24 05:05:23;;;;;;;13.70;6.00;;;;;;;21.65;52.90;100706.73;117428;1185;21895;-66
2021/08/24 05:07:52;;;;;;;8.60;5.00;;;;;;;21.83;52.45;100703.81;117400;1185;22900;-66
2021/08/24 05:10:21;;;;;;;17.40;8.60;;;;;;;22.03;51.81;100700.95;117434;1185;23456;-66
2021/08/24 05:12:50;;;;;;;19.00;7.70;;;;;;;22.24;51.56;100697.28;117444;1185;21855;-67
2021/08/24 05:15:18;;;;;;;19.30;9.60;;;;;;;22.45;51.13;100698.06;117383;1184;21855;-69
2021/08/24 05:17:48;;;;;;;30.50;16.30;;;;;;;22.66;50.83;100696.88;117427;1184;21854;-71
2021/08/24 05:20:18;;;;;;;31.00;16.40;;;;;;;22.86;50.60;100697.16;117376;1182;21853;-67
2021/08/24 05:22:46;;;;;;;34.40;16.00;;;;;;;23.07;50.43;100697.56;117463;1184;21867;-67
2021/08/24 05:25:19;;;;;;;29.70;13.60;;;;;;;23.26;49.83;100695.70;117387;1186;21860;-67
2021/08/24 05:27:47;;;;;;;30.60;12.60;;;;;;;23.41;49.72;100694.45;117442;1186;21866;-69
2021/08/24 05:30:20;;;;;;;11.20;6.90;;;;;;;23.60;49.23;100694.71;117489;1186;21855;-67
2021/08/24 05:32:49;;;;;;;8.00;5.60;;;;;;;23.86;48.71;100690.79;117475;1184;21855;-66
2021/08/24 05:35:17;;;;;;;9.00;4.50;;;;;;;24.06;48.03;100689.91;117473;1183;21864;-68
2021/08/24 05:37:47;;;;;;;10.70;4.60;;;;;;;24.09;47.72;100687.36;117403;1182;22457;-67
2021/08/24 05:40:15;;;;;;;11.10;4.40;;;;;;;24.25;47.12;100687.30;117427;1186;23430;-69
2021/08/24 05:42:44;;;;;;;8.80;4.20;;;;;;;24.45;46.65;100682.19;117474;1185;23424;-65
2021/08/24 05:45:12;;;;;;;10.20;5.30;;;;;;;24.64;46.01;100676.98;117429;1185;23455;-69
2021/08/24 05:47:40;;;;;;;10.40;5.90;;;;;;;24.83;45.75;100679.91;117470;1182;21864;-65
2021/08/24 05:50:09;;;;;;;12.90;5.80;;;;;;;25.02;45.57;100678.98;117570;1182;22839;-66
2021/08/24 05:52:37;;;;;;;10.30;5.30;;;;;;;25.22;45.20;100676.86;117283;1185;22902;-68
2021/08/24 05:55:06;;;;;;;12.20;6.30;;;;;;;25.42;44.90;100678.77;117361;1183;21855;-66
2021/08/24 05:57:34;;;;;;;10.50;5.20;;;;;;;25.60;44.29;100678.94;117458;1183;21855;-68
2021/08/24 06:00:04;;;;;;;9.70;5.10;;;;;;;25.79;43.93;100676.88;117426;1185;21859;-68
2021/08/24 06:02:35;;;;;;;10.20;4.90;;;;;;;26.00;44.14;100680.42;117601;1183;21862;-69
2021/08/24 06:05:05;;;;;;;7.50;4.70;;;;;;;26.23;44.03;100680.05;117822;1180;23620;-68
2021/08/24 06:07:33;;;;;;;9.90;4.90;;;;;;;26.47;43.30;100678.10;117277;1185;22892;-63
2021/08/24 06:10:01;;;;;;;8.50;4.90;;;;;;;26.67;42.76;100676.98;117438;1185;21861;-69
2021/08/24 06:12:29;;;;;;;8.60;4.40;;;;;;;26.86;42.40;100673.59;117509;1182;21855;-67
2021/08/24 06:14:58;;;;;;;6.80;4.10;;;;;;;27.04;42.20;100669.70;117459;1183;21855;-69
2021/08/24 06:17:26;;;;;;;9.00;4.40;;;;;;;27.24;42.08;100668.16;117339;1182;23433;-66
2021/08/24 06:19:54;;;;;;;8.40;4.20;;;;;;;27.47;41.75;100665.30;117464;1185;21864;-66
2021/08/24 06:22:22;;;;;;;7.20;4.40;;;;;;;27.72;41.42;100668.90;117401;1186;22980;-67
2021/08/24 06:24:50;;;;;;;6.90;3.90;;;;;;;27.92;40.98;100667.38;117450;1182;23475;-71
2021/08/24 06:27:19;;;;;;;7.30;4.30;;;;;;;28.14;40.82;100667.39;117413;1185;22908;-69
2021/08/24 06:29:47;;;;;;;6.20;3.90;;;;;;;28.38;40.01;100667.02;117798;1185;22817;-71
2021/08/24 06:32:36;;;;;;;7.30;4.00;;;;;;;28.53;39.82;100665.95;117342;1186;21882;-72
2021/08/24 06:35:05;;;;;;;11.30;3.70;;;;;;;28.71;39.62;100662.88;117375;1185;21854;-65
2021/08/24 06:37:33;;;;;;;9.00;4.00;;;;;;;28.89;39.25;100663.35;117515;1183;23455;-69
2021/08/24 06:40:02;;;;;;;7.00;3.60;;;;;;;29.11;39.05;100667.48;117492;1182;22894;-65
2021/08/24 06:42:39;;;;;;;6.40;3.60;;;;;;;29.27;38.64;100667.91;117446;1183;21858;-68
2021/08/24 06:45:09;;;;;;;8.50;3.40;;;;;;;29.38;38.08;100668.94;117448;1183;23525;-67
2021/08/24 06:47:37;;;;;;;6.60;3.60;;;;;;;29.50;37.97;100666.44;117371;1185;22203;-65
2021/08/24 06:50:06;;;;;;;8.10;3.70;;;;;;;29.68;37.46;100667.38;117382;1185;21987;-67
2021/08/24 06:52:34;;;;;;;6.50;3.20;;;;;;;29.85;37.10;100666.77;117449;1182;21864;-68
2021/08/24 06:55:03;;;;;;;9.40;3.60;;;;;;;30.00;37.02;100668.93;117479;1182;21864;-71
2021/08/24 06:57:31;;;;;;;6.80;3.40;;;;;;;30.21;37.00;100667.05;117425;1185;22865;-66
2021/08/24 07:00:00;;;;;;;7.70;3.40;;;;;;;30.50;36.69;100664.27;117405;1186;21895;-59
2021/08/24 07:02:28;;;;;;;8.10;4.20;;;;;;;30.74;36.15;100663.67;117481;1183;21863;-63
2021/08/24 07:04:57;;;;;;;6.40;3.40;;;;;;;30.89;35.62;100663.21;117488;1182;21866;-64
2021/08/24 07:07:26;;;;;;;5.80;3.70;;;;;;;31.13;35.04;100666.96;117477;1184;22979;-67
2021/08/24 07:09:54;;;;;;;7.40;3.80;;;;;;;31.23;34.45;100667.59;117393;1185;21854;-67
2021/08/24 07:12:23;;;;;;;8.30;3.70;;;;;;;31.31;34.51;100668.09;117428;1182;21852;-70
2021/08/24 07:14:50;;;;;;;7.30;3.30;;;;;;;31.43;34.41;100665.16;117432;1186;22908;-68
2021/08/24 07:17:20;;;;;;;6.30;3.30;;;;;;;31.57;34.01;100663.08;117376;1182;21898;-65
2021/08/24 07:19:49;;;;;;;6.20;3.40;;;;;;;31.73;33.92;100665.05;117474;1177;22910;-65
2021/08/24 07:22:18;;;;;;;8.80;3.90;;;;;;;31.88;33.90;100664.51;117453;1176;21898;-67
2021/08/24 07:24:46;;;;;;;8.90;3.20;;;;;;;31.99;33.82;100666.11;117425;1182;21860;-62
2021/08/24 07:27:14;;;;;;;9.20;3.50;;;;;;;32.16;33.83;100665.77;117393;1182;21857;-66
2021/08/24 07:29:43;;;;;;;9.00;3.90;;;;;;;32.36;33.61;100669.41;117474;1183;21855;-69
2021/08/24 07:32:11;;;;;;;7.30;3.50;;;;;;;32.50;33.26;100670.02;117383;1184;21854;-67
2021/08/24 07:34:40;;;;;;;5.70;3.40;;;;;;;32.68;33.05;100667.49;117331;1185;21890;-60
2021/08/24 07:37:08;;;;;;;7.00;3.50;;;;;;;32.86;32.75;100667.63;117405;1185;23623;-68
2021/08/24 07:39:38;;;;;;;5.90;3.50;;;;;;;33.09;32.55;100667.67;117508;1183;22908;-61
2021/08/24 07:42:06;;;;;;;6.70;3.10;;;;;;;33.25;32.36;100664.73;117444;1186;21864;-70
2021/08/24 07:44:34;;;;;;;9.90;3.20;;;;;;;33.44;32.21;100660.79;117409;1186;21858;-66
2021/08/24 07:47:06;;;;;;;5.00;3.20;;;;;;;33.63;31.88;100658.80;117360;1183;23616;-69
2021/08/24 07:49:35;;;;;;;5.50;3.00;;;;;;;33.87;31.69;100659.68;117432;1182;21854;-68
2021/08/24 07:52:08;;;;;;;7.50;2.80;;;;;;;34.07;31.06;100661.41;117450;1185;21851;-69
2021/08/24 07:54:36;;;;;;;6.00;3.20;;;;;;;34.29;30.52;100657.81;117426;1182;21861;-62
2021/08/24 07:57:05;;;;;;;5.40;3.20;;;;;;;34.47;30.31;100658.06;117393;1183;21854;-63
2021/08/24 07:59:33;;;;;;;10.40;3.30;;;;;;;34.59;30.11;100658.79;117393;1185;21857;-63
2021/08/24 08:02:01;;;;;;;6.10;2.90;;;;;;;34.74;29.44;100660.54;117358;1186;21855;-67
2021/08/24 08:04:30;;;;;;;6.40;2.90;;;;;;;34.87;29.29;100656.94;117371;1184;21855;-77
2021/08/24 08:06:58;;;;;;;4.60;2.80;;;;;;;34.95;28.96;100653.98;117478;1185;21940;-69
2021/08/24 08:09:26;;;;;;;6.00;2.80;;;;;;;35.08;28.66;100650.75;117473;1182;21854;-66
2021/08/24 08:11:54;;;;;;;5.40;3.00;;;;;;;35.20;28.64;100651.83;117421;1184;21862;-73
2021/08/24 08:14:22;;;;;;;8.40;3.10;;;;;;;35.30;28.25;100651.23;117382;1183;22671;-69
2021/08/24 08:16:52;;;;;;;9.30;3.40;;;;;;;35.39;27.53;100653.18;117395;1185;23537;-67
2021/08/24 08:19:20;;;;;;;6.60;3.50;;;;;;;35.41;27.33;100652.86;117621;1182;21969;-65
2021/08/24 08:21:51;;;;;;;7.60;3.40;;;;;;;35.49;27.51;100646.40;117358;1183;23364;-62
2021/08/24 08:24:21;;;;;;;5.20;3.40;;;;;;;35.63;27.29;100646.42;117493;1186;21916;-67
2021/08/24 08:26:49;;;;;;;5.80;3.60;;;;;;;35.79;26.81;100643.70;117452;1183;23566;-63
2021/08/24 08:29:18;;;;;;;4.80;3.50;;;;;;;35.84;26.94;100639.02;117352;1183;22962;-63
2021/08/24 08:31:47;;;;;;;6.10;3.50;;;;;;;35.97;26.97;100638.83;117356;1182;21854;-72
2021/08/24 08:34:18;;;;;;;4.00;3.30;;;;;;;36.02;27.00;100637.93;117371;1185;21870;-68
2021/08/24 08:36:48;;;;;;;4.40;3.00;;;;;;;36.06;26.65;100639.32;117514;1183;21898;-68
2021/08/24 08:39:16;;;;;;;6.20;3.20;;;;;;;36.01;26.41;100640.36;117445;1186;22155;-70
2021/08/24 08:42:25;;;;;;;6.70;4.00;;;;;;;36.00;26.00;100635.92;117364;1179;23571;-69
2021/08/24 08:45:03;;;;;;;6.60;3.70;;;;;;;36.00;26.32;100635.99;117339;1182;22854;-68
2021/08/24 08:47:34;;;;;;;4.20;3.60;;;;;;;36.09;26.27;100628.30;118587;1184;21858;-74
2021/08/24 08:50:22;;;;;;;7.50;3.70;;;;;;;36.26;26.27;100626.79;118548;1181;22901;-71
2021/08/24 08:53:06;;;;;;;7.20;3.60;;;;;;;36.44;25.83;100624.83;117395;1185;21857;-72
2021/08/24 08:55:54;;;;;;;10.50;3.80;;;;;;;36.46;26.28;100626.95;117485;1182;21854;-70
2021/08/24 08:58:37;;;;;;;4.40;3.20;;;;;;;36.67;26.04;100626.17;117436;1183;22639;-69
2021/08/24 09:01:14;;;;;;;5.80;3.30;;;;;;;36.85;25.75;100622.72;117412;1182;22625;-64
2021/08/24 09:04:11;;;;;;;4.90;3.50;;;;;;;37.05;25.58;100618.15;117397;1183;23456;-75
2021/08/24 09:06:39;;;;;;;5.40;3.40;;;;;;;37.21;25.63;100617.10;119014;1186;21853;-64
2021/08/24 09:09:08;;;;;;;7.00;4.00;;;;;;;37.33;25.54;100618.69;119144;1184;21849;-70
2021/08/24 09:11:39;;;;;;;6.20;3.90;;;;;;;37.40;24.83;100623.77;117413;1185;21854;-68
2021/08/24 09:14:13;;;;;;;6.30;3.70;;;;;;;37.44;24.95;100618.78;117456;1183;23471;-69
2021/08/24 09:16:48;;;;;;;8.90;4.40;;;;;;;37.60;25.02;100619.49;117650;1185;23560;-69
2021/08/24 09:19:41;;;;;;;6.10;4.30;;;;;;;37.72;25.21;100615.27;117478;1186;23610;-75
2021/08/24 09:22:13;;;;;;;7.80;4.20;;;;;;;37.90;25.08;100616.90;117398;1185;21855;-74
2021/08/24 09:24:52;;;;;;;6.80;3.80;;;;;;;38.03;24.69;100618.46;117364;1184;23130;-70
2021/08/24 09:27:26;;;;;;;5.30;4.10;;;;;;;38.08;24.13;100619.27;117370;1185;22982;-74
2021/08/24 09:29:57;;;;;;;8.00;4.50;;;;;;;38.13;23.81;100616.75;117391;1184;21860;-75
2021/08/24 09:32:26;;;;;;;5.80;4.80;;;;;;;38.03;23.60;100614.83;117443;1183;21858;-76
2021/08/24 09:35:27;;;;;;;8.90;5.10;;;;;;;37.95;24.20;100613.83;117371;1185;22837;-71
2021/08/24 09:37:58;;;;;;;8.30;5.10;;;;;;;37.94;23.89;100609.58;117399;1182;22926;-73
2021/08/24 09:40:50;;;;;;;8.30;6.00;;;;;;;37.99;24.39;100610.77;117361;1185;21854;-72
2021/08/24 09:43:25;;;;;;;10.60;6.60;;;;;;;38.17;24.25;100612.31;117474;1186;22094;-73
2021/08/24 09:45:58;;;;;;;8.10;6.60;;;;;;;38.37;23.96;100609.05;117394;1185;24155;-72
2021/08/24 09:48:27;;;;;;;6.90;4.80;;;;;;;38.50;23.94;100610.23;117451;1186;21851;-71
2021/08/24 09:50:55;;;;;;;9.00;4.70;;;;;;;38.60;23.79;100607.95;117413;1182;21855;-76
2021/08/24 09:53:29;;;;;;;7.30;5.10;;;;;;;38.76;23.40;100607.58;117450;1185;21840;-73
2021/08/24 09:55:57;;;;;;;6.90;4.40;;;;;;;38.79;23.34;100602.98;117330;1185;21858;-77
2021/08/24 09:58:44;;;;;;;7.60;5.00;;;;;;;38.84;23.24;100599.98;117306;1186;21860;-73
2021/08/24 10:01:14;;;;;;;7.90;4.50;;;;;;;38.91;22.67;100604.98;117306;1185;21842;-75
2021/08/24 10:03:43;;;;;;;;;;;;;;;38.77;22.80;100608.98;117372;1182;22925;-71
2021/08/24 10:06:22;;;;;;;7.40;4.40;;;;;;;38.78;22.87;100604.76;117323;1185;23432;-71
2021/08/24 10:08:55;;;;;;;7.10;4.30;;;;;;;38.87;23.11;100603.99;117404;1182;22630;-72
2021/08/24 10:11:31;;;;;;;9.40;4.60;;;;;;;38.96;23.18;100601.23;117339;1185;21858;-72
2021/08/24 10:14:19;;;;;;;6.10;3.70;;;;;;;39.00;22.83;100599.56;117411;1182;22169;-70
2021/08/24 10:16:52;;;;;;;7.20;4.20;;;;;;;38.89;22.04;100599.52;117373;1182;23462;-75
2021/08/24 10:19:25;;;;;;;7.30;4.40;;;;;;;38.55;22.18;100600.05;117435;1189;21858;-75
2021/08/24 10:21:54;;;;;;;7.20;5.20;;;;;;;38.45;22.76;100603.75;117357;1185;23538;-72
2021/08/24 10:24:37;;;;;;;7.00;5.60;;;;;;;38.59;23.12;100594.27;117437;1182;22820;-71
2021/08/24 10:27:08;;;;;;;6.20;4.30;;;;;;;38.89;22.89;100585.20;117385;1185;22929;-74
2021/08/24 10:29:44;;;;;;;9.60;4.80;;;;;;;39.15;23.12;100583.13;117313;1185;23561;-78
2021/08/24 10:32:12;;;;;;;6.80;4.20;;;;;;;39.36;22.42;100582.63;117198;1188;22004;-62
2021/08/24 10:34:43;;;;;;;6.00;4.70;;;;;;;39.43;22.23;100581.14;117349;1182;23538;-75
2021/08/24 10:37:25;;;;;;;10.60;5.10;;;;;;;39.42;21.72;100575.84;117300;1188;21883;-71
2021/08/24 10:40:24;;;;;;;8.70;5.20;;;;;;;39.27;21.65;100578.88;118732;1182;22376;-62
2021/08/24 10:43:03;;;;;;;6.50;4.50;;;;;;;39.06;21.96;100583.23;117346;1186;22909;-65
2021/08/24 10:45:36;;;;;;;10.30;4.80;;;;;;;39.01;22.14;100579.37;117375;1185;21866;-60
2021/08/24 10:48:07;;;;;;;6.20;4.30;;;;;;;38.97;22.17;100580.19;117342;1182;24159;-59
2021/08/24 10:50:42;;;;;;;5.00;4.10;;;;;;;39.04;22.39;100579.38;117466;1183;21909;-68
2021/08/24 10:53:50;;;;;;;8.70;4.40;;;;;;;39.19;22.40;100571.17;117352;1189;21854;-73
2021/08/24 10:56:57;;;;;;;5.00;3.60;;;;;;;39.27;22.00;100566.94;117368;1182;23449;-76
2021/08/24 10:59:41;;;;;;;5.90;4.00;;;;;;;39.28;21.87;100565.84;117378;1182;21895;-71
2021/08/24 11:02:21;;;;;;;6.70;3.80;;;;;;;39.20;21.94;100571.30;117393;1182;21971;-70
2021/08/24 11:04:58;;;;;;;6.70;3.80;;;;;;;39.12;22.10;100573.80;117427;1185;21855;-66
2021/08/24 11:07:49;;;;;;;7.00;3.80;;;;;;;39.18;22.14;100570.52;117359;1183;23560;-59
2021/08/24 11:10:26;;;;;;;5.10;3.70;;;;;;;39.32;22.05;100563.38;117468;1180;21903;-68
2021/08/24 11:13:13;;;;;;;20.70;5.20;;;;;;;39.49;22.13;100564.39;117468;1182;23675;-71
2021/08/24 11:15:46;;;;;;;6.60;4.20;;;;;;;39.56;21.72;100564.58;117390;1188;21862;-70
2021/08/24 11:18:15;;;;;;;5.80;3.70;;;;;;;39.52;21.32;100560.29;117383;1185;23006;-66
2021/08/24 11:21:01;;;;;;;6.80;3.60;;;;;;;39.46;20.66;100555.95;117455;1182;22040;-71
2021/08/24 11:23:51;;;;;;;6.30;3.50;;;;;;;39.41;21.07;100556.23;117423;1185;23631;-70
2021/08/24 11:26:29;;;;;;;7.10;3.70;;;;;;;39.52;21.26;100550.25;117134;1185;21865;-77
2021/08/24 11:29:35;;;;;;;6.00;3.80;;;;;;;39.70;21.61;100545.59;117511;1185;21854;-77
2021/08/24 11:32:09;;;;;;;6.30;3.90;;;;;;;39.78;21.19;100543.06;117187;1186;21855;-70
2021/08/24 11:34:41;;;;;;;5.80;3.90;;;;;;;39.65;21.27;100536.77;117333;1185;22622;-68
2021/08/24 11:37:35;;;;;;;5.70;3.90;;;;;;;39.49;22.30;100536.44;117290;1182;21857;-69
2021/08/24 11:40:10;;;;;;;4.50;3.30;;;;;;;39.39;22.19;100534.83;117348;1183;23429;-72
2021/08/24 11:42:54;;;;;;;5.20;3.50;;;;;;;39.32;21.71;100531.74;117296;1186;23753;-61
2021/08/24 11:45:30;;;;;;;5.30;4.00;;;;;;;39.23;22.18;100531.27;117359;1185;22911;-73